Time;durP1;ratioP1;P1;durP2;ratioP2;P2;SDS_P1;SDS_P2;PMS_P1;PMS_P2;Temp;Humidity;BMP_temperature;BMP_pressure;BME280_temperature;BME280_humidity;BME280_pressure;Samples;Min_cycle;Max_cycle;Signal;HPM_P1;HPM_P2
2022/05/06 00:00:00;;;;;;;5.28;4.05;;;;;;;15.78;60.93;99155.41;4484211;31;20101;-71
2022/05/06 00:02:27;;;;;;;6.05;4.20;;;;;;;15.83;60.60;99154.91;4485217;31;20103;-71
2022/05/06 00:04:55;;;;;;;5.25;4.30;;;;;;;15.86;60.70;99159.06;4485166;31;20763;-71
2022/05/06 00:07:22;;;;;;;8.10;4.57;;;;;;;15.91;60.38;99156.75;4485008;32;20084;-71
2022/05/06 00:09:49;;;;;;;22.37;7.00;;;;;;;15.79;60.90;99143.84;4485035;31;20580;-71
2022/05/06 00:12:19;;;;;;;7.32;4.55;;;;;;;15.73;61.07;99148.91;4485077;31;20088;-71
2022/05/06 00:14:46;;;;;;;5.28;4.40;;;;;;;15.73;61.39;99147.13;4484931;31;20111;-71
2022/05/06 00:17:14;;;;;;;9.18;4.68;;;;;;;15.64;60.86;99140.16;4483609;32;20126;-71
2022/05/06 00:19:45;;;;;;;5.15;4.20;;;;;;;15.71;60.48;99141.16;4485035;31;20142;-71
2022/05/06 00:22:12;;;;;;;6.60;4.47;;;;;;;15.71;60.49;99143.78;4485012;32;20084;-71
2022/05/06 00:24:40;;;;;;;5.43;4.22;;;;;;;15.68;60.40;99146.75;4485050;31;20100;-71
2022/05/06 00:27:08;;;;;;;4.45;4.05;;;;;;;15.77;59.97;99148.47;4485258;32;20088;-71
2022/05/06 00:29:35;;;;;;;7.70;4.07;;;;;;;15.71;60.49;99145.63;4485128;31;20088;-71
2022/05/06 00:32:02;;;;;;;8.98;4.18;;;;;;;15.73;60.82;99154.19;4484740;31;20123;-71
2022/05/06 00:34:30;;;;;;;8.60;4.03;;;;;;;15.75;60.46;99147.78;4484937;31;20479;-71
2022/05/06 00:36:57;;;;;;;7.28;4.10;;;;;;;15.68;60.53;99141.47;4484937;31;20096;-71
2022/05/06 00:39:24;;;;;;;5.05;3.90;;;;;;;15.81;60.42;99146.34;4484702;31;20203;-71
2022/05/06 00:41:53;;;;;;;5.45;4.10;;;;;;;15.82;60.17;99144.50;4484884;31;20646;-71
2022/05/06 00:44:22;;;;;;;4.87;4.03;;;;;;;15.85;60.12;99144.19;4484851;31;20092;-71
2022/05/06 00:46:52;;;;;;;6.60;4.10;;;;;;;15.80;60.49;99139.41;4484712;32;20118;-71
2022/05/06 00:49:20;;;;;;;5.50;4.10;;;;;;;15.76;60.77;99146.78;4484868;31;20442;-71
2022/05/06 00:51:48;;;;;;;9.40;3.80;;;;;;;15.79;61.09;99143.00;4484755;32;20509;-71
2022/05/06 00:54:16;;;;;;;6.45;4.15;;;;;;;15.64;61.63;99140.16;4485138;31;20163;-71
2022/05/06 00:56:44;;;;;;;6.22;3.87;;;;;;;15.56;62.50;99145.41;4484748;32;20092;-71
2022/05/06 00:59:13;;;;;;;5.97;4.00;;;;;;;15.58;62.10;99140.81;4484701;31;20107;-71
2022/05/06 01:01:40;;;;;;;7.72;4.95;;;;;;;15.51;62.06;99142.44;4484577;32;20552;-71
2022/05/06 01:04:08;;;;;;;5.20;3.90;;;;;;;15.43;61.99;99149.31;4484881;31;20189;-71
2022/05/06 01:06:36;;;;;;;7.30;4.00;;;;;;;15.49;62.03;99147.87;4484513;31;20096;-71
2022/05/06 01:09:03;;;;;;;8.02;3.90;;;;;;;15.61;62.33;99156.31;4484765;31;20100;-71
2022/05/06 01:11:31;;;;;;;5.03;3.97;;;;;;;15.52;61.81;99154.63;4483850;31;20109;-71
2022/05/06 01:13:59;;;;;;;8.60;3.67;;;;;;;15.54;62.28;99161.41;4484556;31;20159;-71
2022/05/06 01:16:32;;;;;;;6.18;4.07;;;;;;;15.53;62.26;99154.47;4484557;31;20121;-71
2022/05/06 01:19:01;;;;;;;9.27;4.43;;;;;;;15.46;62.53;99158.75;4484784;31;20118;-71
2022/05/06 01:21:34;;;;;;;5.75;4.32;;;;;;;15.31;63.95;99147.94;4484587;31;20165;-71
2022/05/06 01:24:03;;;;;;;10.82;4.07;;;;;;;15.32;64.29;99146.97;4484396;31;20130;-71
2022/05/06 01:27:06;;;;;;;5.60;4.40;;;;;;;15.19;65.09;99146.59;4484401;31;20561;-71
2022/05/06 01:29:35;;;;;;;6.30;4.72;;;;;;;14.99;66.36;99151.22;4419687;32;20585;-70
2022/05/06 01:32:03;;;;;;;5.18;4.53;;;;;;;14.90;67.00;99160.94;4419398;32;20542;-71
2022/05/06 01:34:32;;;;;;;7.95;4.95;;;;;;;14.78;68.06;99164.81;4419602;32;20520;-71
2022/05/06 01:37:02;;;;;;;6.93;4.95;;;;;;;14.71;68.55;99148.75;4419710;32;20110;-71
2022/05/06 01:39:34;;;;;;;5.47;4.80;;;;;;;14.62;69.13;99147.87;4419798;32;20167;-71
2022/05/06 01:42:05;;;;;;;10.27;5.35;;;;;;;14.58;69.34;99148.28;4419821;32;20085;-71
2022/05/06 01:44:44;;;;;;;7.97;5.55;;;;;;;14.52;69.88;99149.75;4419563;32;20141;-71
2022/05/06 01:47:16;;;;;;;8.02;5.30;;;;;;;14.56;69.88;99140.53;4419479;32;20168;-71
2022/05/06 01:49:44;;;;;;;8.52;5.55;;;;;;;14.45;70.79;99138.16;4406920;32;20501;-71
2022/05/06 01:52:15;;;;;;;6.55;5.50;;;;;;;14.45;71.08;99148.72;4406954;32;20116;-71
2022/05/06 01:54:43;;;;;;;8.77;5.72;;;;;;;14.35;71.76;99149.63;4419714;32;20531;-70
2022/05/06 01:57:10;;;;;;;10.15;5.87;;;;;;;14.29;72.28;99147.59;4419508;32;20172;-71
2022/05/06 01:59:38;;;;;;;10.57;6.15;;;;;;;14.20;73.08;99151.12;4419605;32;20125;-71
2022/05/06 02:02:06;;;;;;;10.10;6.32;;;;;;;14.14;73.83;99147.31;4419386;32;20147;-71
2022/05/06 02:07:21;;;;;;;9.57;6.65;;;;;;;14.04;74.45;99145.72;4483555;31;20122;-71
2022/05/06 02:09:49;;;;;;;8.73;6.95;;;;;;;14.00;75.32;99135.50;4483572;31;20088;-71
2022/05/06 02:12:16;;;;;;;10.75;6.50;;;;;;;13.94;75.72;99135.25;4483725;32;20571;-71
2022/05/06 02:14:44;;;;;;;10.25;6.55;;;;;;;13.93;75.94;99142.31;4483690;31;20116;-71
2022/05/06 02:17:13;;;;;;;9.32;6.47;;;;;;;13.89;76.44;99146.22;4481964;32;20158;-71
2022/05/06 02:19:42;;;;;;;11.02;6.85;;;;;;;13.86;76.64;99143.88;4483787;31;20084;-71
2022/05/06 02:22:10;;;;;;;11.80;7.40;;;;;;;13.86;77.01;99143.06;4484085;31;20155;-71
2022/05/06 02:24:37;;;;;;;9.02;6.90;;;;;;;13.80;76.89;99145.31;4486221;31;20092;-71
2022/05/06 02:27:05;;;;;;;8.20;6.70;;;;;;;13.79;77.09;99143.66;4485885;31;20096;-70
2022/05/06 02:29:32;;;;;;;10.93;6.43;;;;;;;13.75;77.11;99141.47;4486142;31;20502;-71
2022/05/06 02:34:47;;;;;;;8.70;6.60;;;;;;;13.74;76.97;99142.44;4485919;31;20092;-71
2022/05/06 02:37:15;;;;;;;10.93;6.53;;;;;;;13.76;76.94;99149.22;4485828;31;20155;-70
2022/05/06 02:39:42;;;;;;;10.13;6.40;;;;;;;13.75;77.08;99152.00;4486198;31;20092;-71
2022/05/06 02:42:10;;;;;;;7.97;6.00;;;;;;;13.77;76.94;99155.31;4485969;31;20493;-70
2022/05/06 02:44:39;;;;;;;8.65;6.37;;;;;;;13.72;76.82;99149.69;4485636;31;20084;-70
2022/05/06 02:47:08;;;;;;;7.70;5.93;;;;;;;13.79;76.42;99142.81;4485680;31;20119;-71
2022/05/06 02:49:35;;;;;;;7.72;5.68;;;;;;;13.75;76.41;99147.56;4485898;32;20674;-71
2022/05/06 02:52:04;;;;;;;8.23;6.35;;;;;;;13.81;75.91;99154.06;4485902;31;20092;-71
2022/05/06 02:54:33;;;;;;;11.63;6.62;;;;;;;13.83;76.02;99152.91;4485889;31;20446;-71
2022/05/06 02:57:02;;;;;;;8.15;6.15;;;;;;;13.77;76.24;99152.69;4485834;32;20567;-71
2022/05/06 02:59:31;;;;;;;10.60;6.15;;;;;;;13.75;76.24;99147.56;4485799;31;20145;-70
2022/05/06 03:01:58;;;;;;;8.40;6.10;;;;;;;13.78;76.27;99138.56;4485769;31;20114;-70
2022/05/06 03:04:26;;;;;;;10.10;6.47;;;;;;;13.80;76.16;99144.47;4485695;31;20161;-71
2022/05/06 03:06:54;;;;;;;8.43;6.00;;;;;;;13.69;76.75;99136.78;4485347;31;20097;-71
2022/05/06 03:09:22;;;;;;;12.73;6.57;;;;;;;13.69;76.70;99135.00;4485653;31;20164;-71
2022/05/06 03:11:50;;;;;;;9.43;6.40;;;;;;;13.70;76.47;99134.03;4485594;31;20084;-71
2022/05/06 03:14:17;;;;;;;8.68;6.28;;;;;;;13.73;76.49;99140.78;4485626;31;20453;-71
2022/05/06 03:16:46;;;;;;;9.13;6.15;;;;;;;13.73;76.09;99144.25;4483895;32;20519;-71
2022/05/06 03:19:13;;;;;;;10.82;6.20;;;;;;;13.77;75.95;99145.59;4485555;32;20088;-71
2022/05/06 03:21:40;;;;;;;7.28;5.82;;;;;;;13.83;75.49;99144.19;4485307;31;20534;-71
2022/05/06 03:24:08;;;;;;;8.40;6.43;;;;;;;13.85;75.88;99147.50;4484373;32;20120;-71
2022/05/06 03:26:35;;;;;;;9.95;5.95;;;;;;;13.83;75.68;99139.75;4485338;31;20096;-70
2022/05/06 03:29:02;;;;;;;8.57;6.20;;;;;;;13.86;75.28;99150.97;4485496;31;20115;-71
2022/05/06 03:31:30;;;;;;;8.10;5.80;;;;;;;13.81;75.41;99152.25;4485465;32;20152;-71
2022/05/06 03:33:58;;;;;;;9.10;5.80;;;;;;;13.76;75.54;99149.22;4485325;31;20173;-71
2022/05/06 03:36:26;;;;;;;7.50;5.57;;;;;;;13.82;75.56;99153.91;4485592;31;20165;-71
2022/05/06 03:38:55;;;;;;;11.23;5.60;;;;;;;13.83;75.25;99154.72;4485161;31;20088;-71
2022/05/06 03:41:23;;;;;;;7.43;5.60;;;;;;;13.88;75.25;99147.19;4485516;31;20524;-71
2022/05/06 03:43:50;;;;;;;8.18;6.07;;;;;;;13.90;75.03;99145.25;4485441;32;20101;-71
2022/05/06 03:46:18;;;;;;;12.13;5.72;;;;;;;14.01;74.56;99145.03;4485043;31;20149;-71
2022/05/06 03:48:45;;;;;;;8.70;6.00;;;;;;;13.97;75.07;99150.75;4485168;32;20119;-71
2022/05/06 03:51:22;;;;;;;10.77;5.57;;;;;;;14.08;74.26;99141.78;4485440;31;20100;-71
2022/05/06 03:53:52;;;;;;;8.48;5.97;;;;;;;14.10;74.15;99151.22;4485434;31;20100;-72
2022/05/06 03:56:23;;;;;;;7.82;5.28;;;;;;;14.10;74.16;99148.56;4485219;31;20462;-72
2022/05/06 03:58:51;;;;;;;8.57;6.53;;;;;;;14.07;73.92;99150.69;4485423;31;20171;-72
2022/05/06 04:01:19;;;;;;;6.37;5.37;;;;;;;14.15;73.73;99156.03;4484472;31;20088;-72
2022/05/06 04:03:47;;;;;;;7.05;5.80;;;;;;;14.26;73.35;99161.09;4485264;31;20085;-72
2022/05/06 04:06:16;;;;;;;11.20;5.95;;;;;;;14.23;nan;99171.06;4484826;31;20160;-72
2022/05/06 04:08:45;;;;;;;7.57;5.47;;;;;;;14.26;73.51;99166.34;4484965;32;20574;-72
2022/05/06 04:11:13;;;;;;;7.55;5.37;;;;;;;14.26;73.79;99162.87;4484322;32;20088;-72
2022/05/06 04:13:42;;;;;;;8.52;5.87;;;;;;;14.21;73.92;99165.97;4485331;31;20430;-72
2022/05/06 04:16:09;;;;;;;9.38;5.75;;;;;;;14.27;74.21;99162.72;4484850;31;20092;-72
2022/05/06 04:18:38;;;;;;;7.57;5.80;;;;;;;14.19;74.50;99166.09;4484711;31;20097;-72
2022/05/06 04:23:52;;;;;;;8.13;5.47;;;;;;;14.34;74.84;99176.13;4484445;32;20164;-72
2022/05/06 04:26:19;;;;;;;7.85;6.12;;;;;;;14.36;74.42;99174.97;4484388;31;20449;-72
2022/05/06 04:28:48;;;;;;;8.95;6.22;;;;;;;14.50;74.60;99185.97;4484101;32;20138;-72
2022/05/06 04:31:17;;;;;;;7.70;5.53;;;;;;;14.45;74.75;99185.63;4484502;32;20139;-72
2022/05/06 04:33:44;;;;;;;8.68;6.10;;;;;;;14.45;75.08;99190.88;4484860;31;20101;-72
2022/05/06 04:36:13;;;;;;;6.75;5.72;;;;;;;14.46;75.34;99195.16;4484899;32;20101;-72
2022/05/06 04:38:41;;;;;;;7.40;5.40;;;;;;;14.58;74.59;99191.34;4484187;31;20097;-72
2022/05/06 04:41:08;;;;;;;10.23;6.12;;;;;;;14.71;75.22;99188.31;4484367;31;20141;-72
2022/05/06 04:43:36;;;;;;;8.90;6.55;;;;;;;14.73;74.68;99195.09;4484453;31;20128;-72
2022/05/06 04:46:03;;;;;;;18.77;6.07;;;;;;;14.87;74.47;99191.06;4482957;31;20625;-72
2022/05/06 04:48:31;;;;;;;7.62;5.97;;;;;;;14.86;74.55;99201.78;4483703;31;20149;-71
2022/05/06 04:50:59;;;;;;;9.00;6.28;;;;;;;15.06;73.71;99203.25;4485463;31;20122;-72
2022/05/06 04:53:26;;;;;;;8.85;6.45;;;;;;;15.18;73.23;99206.44;4484230;31;20148;-72
2022/05/06 04:55:55;;;;;;;19.37;6.80;;;;;;;15.17;72.88;99211.88;4483449;31;20106;-72
2022/05/06 04:58:24;;;;;;;7.87;5.62;;;;;;;14.88;74.16;99207.72;4483169;31;20087;-72
2022/05/06 05:00:57;;;;;;;12.57;6.50;;;;;;;15.03;74.22;99219.41;4479293;31;20079;-72
2022/05/06 05:03:24;;;;;;;8.25;6.40;;;;;;;14.96;74.46;99210.44;4467044;32;20180;-72
2022/05/06 05:05:53;;;;;;;9.35;6.72;;;;;;;14.88;74.79;99207.72;4470611;32;20122;-72
2022/05/06 05:08:20;;;;;;;9.90;6.85;;;;;;;14.85;74.63;99213.31;4479760;32;20104;-72
2022/05/06 05:10:48;;;;;;;9.50;6.68;;;;;;;14.99;74.77;99218.03;4472599;31;20126;-72
2022/05/06 05:13:16;;;;;;;12.05;7.93;;;;;;;14.89;74.72;99209.37;4479751;31;20465;-72
2022/05/06 05:15:44;;;;;;;13.68;7.25;;;;;;;14.84;75.04;99201.13;4477512;32;20138;-72
2022/05/06 05:18:12;;;;;;;9.23;6.22;;;;;;;14.83;75.45;99212.66;4479906;32;20135;-72
2022/05/06 05:20:40;;;;;;;8.60;6.50;;;;;;;14.86;75.35;99207.06;4479240;31;20096;-72
2022/05/06 05:23:07;;;;;;;18.35;7.62;;;;;;;14.77;74.88;99215.91;4478482;32;20127;-72
2022/05/06 05:25:35;;;;;;;11.18;6.45;;;;;;;14.79;75.72;99214.78;4475412;31;20623;-72
2022/05/06 05:28:02;;;;;;;8.93;6.53;;;;;;;14.93;75.12;99210.75;4477512;32;20138;-72
2022/05/06 05:30:30;;;;;;;17.48;8.00;;;;;;;14.80;75.06;99211.13;4480211;32;20157;-72
2022/05/06 05:32:58;;;;;;;16.08;7.25;;;;;;;14.86;74.73;99217.59;4484016;31;20122;-72
2022/05/06 05:35:25;;;;;;;11.63;7.68;;;;;;;14.73;76.11;99215.34;4481729;31;20478;-72
2022/05/06 05:37:53;;;;;;;9.75;7.25;;;;;;;14.75;76.03;99209.94;4489184;31;20119;-72
2022/05/06 05:40:20;;;;;;;10.85;6.80;;;;;;;14.97;75.41;99214.72;4475541;32;20088;-72
2022/05/06 05:42:47;;;;;;;14.82;7.70;;;;;;;14.74;75.49;99217.03;4481047;31;20805;-72
2022/05/06 05:48:21;;;;;;;10.73;6.57;;;;;;;14.77;75.94;99221.16;4477457;31;20093;-72
2022/05/06 05:50:49;;;;;;;12.35;6.78;;;;;;;14.98;74.97;99223.47;4481961;31;20139;-72
2022/05/06 05:53:17;;;;;;;12.65;7.15;;;;;;;15.00;74.99;99224.13;4474709;31;20140;-73
2022/05/06 05:55:46;;;;;;;37.88;8.20;;;;;;;14.98;74.91;99231.37;4480522;32;20113;-73
2022/05/06 05:58:13;;;;;;;12.52;6.93;;;;;;;14.98;74.75;99234.03;4484272;31;20097;-72
2022/05/06 06:00:41;;;;;;;17.98;7.55;;;;;;;14.99;74.72;99235.66;4482197;31;20149;-74
2022/05/06 06:03:08;;;;;;;16.27;7.90;;;;;;;15.16;74.82;99232.16;4481948;31;20142;-72
2022/05/06 06:05:37;;;;;;;11.52;7.00;;;;;;;15.15;74.22;99234.97;4480280;31;20088;-73
2022/05/06 06:08:05;;;;;;;16.50;7.25;;;;;;;15.14;74.37;99238.56;4473375;31;20127;-76
2022/05/06 06:10:33;;;;;;;10.35;7.25;;;;;;;15.26;74.33;99235.53;4481336;32;20868;-74
2022/05/06 06:13:04;;;;;;;12.77;7.10;;;;;;;15.33;73.21;99230.44;4481186;32;20182;-74
2022/05/06 06:15:32;;;;;;;11.50;6.90;;;;;;;15.33;73.93;99237.53;4478846;31;20111;-74
2022/05/06 06:17:59;;;;;;;11.60;7.70;;;;;;;15.38;73.62;99238.75;4474493;31;20160;-74
2022/05/06 06:20:27;;;;;;;10.20;7.03;;;;;;;15.43;73.28;99241.72;4477227;31;20104;-75
2022/05/06 06:22:54;;;;;;;13.85;7.32;;;;;;;15.44;73.67;99246.03;4484314;31;20100;-75
2022/05/06 06:25:22;;;;;;;11.07;7.12;;;;;;;15.65;72.52;99244.78;4484881;31;20164;-76
2022/05/06 06:27:50;;;;;;;12.95;7.78;;;;;;;15.92;72.42;99240.31;4479820;32;20109;-75
2022/05/06 06:30:18;;;;;;;9.25;6.45;;;;;;;15.91;70.92;99236.03;4480647;32;20169;-74
2022/05/06 06:32:52;;;;;;;13.13;7.10;;;;;;;16.12;71.44;99248.81;4479293;32;20124;-75
2022/05/06 06:35:21;;;;;;;13.82;7.78;;;;;;;16.25;70.85;99245.72;4479485;31;20100;-75
2022/05/06 06:37:49;;;;;;;13.50;7.62;;;;;;;16.20;70.35;99250.62;4481091;32;20100;-75
2022/05/06 06:40:17;;;;;;;15.88;7.30;;;;;;;15.99;71.33;99241.34;4484135;31;20095;-74
2022/05/06 06:42:46;;;;;;;12.98;6.80;;;;;;;16.14;71.35;99247.66;4481287;31;20127;-75
2022/05/06 06:45:14;;;;;;;20.90;7.00;;;;;;;16.13;70.96;99239.91;4478322;32;20100;-74
2022/05/06 06:47:43;;;;;;;14.90;7.15;;;;;;;16.12;70.60;99249.66;4474397;31;20104;-73
2022/05/06 06:50:12;;;;;;;13.40;6.93;;;;;;;16.19;71.69;99243.72;4483142;31;20172;-73
2022/05/06 06:52:40;;;;;;;13.13;7.85;;;;;;;16.30;70.35;99238.94;4489189;31;20139;-73
2022/05/06 06:55:08;;;;;;;13.45;7.62;;;;;;;16.36;70.76;99240.09;4486169;31;20188;-74
2022/05/06 06:57:35;;;;;;;17.73;8.32;;;;;;;16.61;69.69;99240.16;4477122;32;20691;-74
2022/05/06 07:00:03;;;;;;;14.15;7.20;;;;;;;16.55;69.24;99232.84;4481276;31;20100;-75
2022/05/06 07:02:37;;;;;;;12.18;7.43;;;;;;;16.62;68.52;99239.13;4489443;31;20087;-75
2022/05/06 07:05:04;;;;;;;13.38;7.78;;;;;;;16.81;67.91;99232.72;4484518;31;20080;-73
2022/05/06 07:13:43;;;;;;;12.82;7.12;;;;;;;16.98;67.23;99228.25;4465347;32;20311;-73
2022/05/06 07:16:10;;;;;;;12.75;7.53;;;;;;;17.29;66.75;99232.81;4463110;32;20623;-73
2022/05/06 07:18:37;;;;;;;16.15;7.62;;;;;;;16.90;67.26;99236.22;4460622;32;20092;-73
2022/05/06 07:21:04;;;;;;;10.77;7.15;;;;;;;17.10;68.17;99229.56;4459626;32;20210;-72
2022/05/06 07:23:32;;;;;;;11.02;7.57;;;;;;;17.12;66.95;99229.38;4458646;32;20109;-72
2022/05/06 07:25:59;;;;;;;13.93;7.65;;;;;;;17.31;66.83;99233.50;4462265;32;20629;-73
2022/05/06 07:28:26;;;;;;;11.23;6.97;;;;;;;17.38;66.45;99239.75;4464866;32;20104;-73
2022/05/06 07:30:53;;;;;;;16.50;7.90;;;;;;;17.25;67.53;99231.53;4461003;32;20227;-73
2022/05/06 07:33:20;;;;;;;10.98;7.53;;;;;;;17.30;65.94;99243.25;4462725;32;20128;-72
2022/05/06 07:35:48;;;;;;;12.75;8.43;;;;;;;17.34;67.26;99239.28;4458781;32;20131;-72
2022/05/06 07:38:15;;;;;;;13.45;7.40;;;;;;;17.49;66.23;99242.06;4466708;32;20136;-72
2022/05/06 07:40:43;;;;;;;11.48;8.18;;;;;;;17.40;66.40;99242.25;4459760;32;20153;-72
2022/05/06 07:43:12;;;;;;;11.90;7.78;;;;;;;17.70;66.55;99240.69;4454388;32;20162;-72
2022/05/06 07:45:40;;;;;;;15.02;7.35;;;;;;;17.93;64.78;99245.25;4477814;32;20104;-72
2022/05/06 07:48:10;;;;;;;16.15;7.43;;;;;;;17.76;65.33;99252.38;4482656;31;20416;-72
2022/05/06 07:50:37;;;;;;;14.95;8.25;;;;;;;18.04;64.98;99247.50;4484533;31;20445;-72
2022/05/06 07:53:05;;;;;;;11.32;7.45;;;;;;;17.70;65.21;99243.31;4482355;31;20130;-72
2022/05/06 07:55:35;;;;;;;14.75;7.82;;;;;;;17.63;66.01;99247.66;4476853;32;20108;-72
2022/05/06 07:58:04;;;;;;;13.70;8.02;;;;;;;17.78;66.26;99245.94;4483573;31;20109;-72
2022/05/06 08:00:32;;;;;;;17.02;8.10;;;;;;;18.16;64.78;99256.72;4482738;32;20136;-73
2022/05/06 08:05:47;;;;;;;13.85;8.30;;;;;;;18.33;65.00;99253.97;4485492;31;20152;-73
2022/05/06 08:08:15;;;;;;;11.88;7.32;;;;;;;18.59;64.32;99248.31;4497734;31;20111;-73
2022/05/06 08:10:44;;;;;;;13.60;7.97;;;;;;;18.92;63.66;99254.22;4478816;32;20092;-73
2022/05/06 08:13:11;;;;;;;8.15;6.65;;;;;;;18.92;62.47;99253.41;4479898;32;20108;-72
2022/05/06 08:15:38;;;;;;;17.40;8.43;;;;;;;19.11;62.14;99252.09;4486708;31;20156;-72
2022/05/06 08:18:07;;;;;;;11.57;6.87;;;;;;;19.38;61.58;99260.44;4495604;31;20121;-73
2022/05/06 08:20:34;;;;;;;19.45;8.10;;;;;;;19.29;60.99;99249.91;4483906;31;20114;-73
2022/05/06 08:23:01;;;;;;;9.60;6.47;;;;;;;19.51;58.71;99252.66;4469541;32;20150;-74
2022/05/06 08:25:29;;;;;;;8.52;6.60;;;;;;;19.39;58.38;99260.25;4478618;31;20131;-74
2022/05/06 08:28:07;;;;;;;9.40;6.45;;;;;;;19.35;58.73;99250.16;4485031;31;20084;-74
2022/05/06 08:30:34;;;;;;;7.18;6.00;;;;;;;19.41;58.31;99249.44;4480047;31;20522;-74
2022/05/06 08:33:01;;;;;;;10.43;5.72;;;;;;;19.64;57.14;99255.50;4484022;31;20130;-74
2022/05/06 08:35:29;;;;;;;14.55;6.78;;;;;;;19.63;56.01;99250.38;4484990;31;20122;-74
2022/05/06 08:37:57;;;;;;;12.88;6.22;;;;;;;19.50;57.41;99254.50;4481246;31;20842;-74
2022/05/06 08:40:26;;;;;;;9.10;6.10;;;;;;;19.82;56.60;99249.84;4481095;31;20503;-74
2022/05/06 08:42:53;;;;;;;12.23;6.10;;;;;;;19.82;56.58;99251.69;4481391;31;20134;-73
2022/05/06 08:50:56;;;;;;;10.20;6.80;;;;;;;19.63;54.12;99261.81;4476011;32;20115;-73
2022/05/06 08:53:26;;;;;;;11.65;6.35;;;;;;;19.73;56.02;99256.22;4480493;31;20457;-74
2022/05/06 08:55:55;;;;;;;11.93;6.47;;;;;;;19.93;56.08;99253.03;4482706;31;20109;-74
2022/05/06 08:58:24;;;;;;;14.52;6.80;;;;;;;19.92;54.78;99262.00;4479122;31;20123;-74
2022/05/06 09:01:19;;;;;;;14.27;7.00;;;;;;;20.10;55.92;99258.97;4483658;31;20092;-74
2022/05/06 09:03:48;;;;;;;12.07;6.45;;;;;;;19.85;54.91;99261.94;4478940;31;20113;-74
2022/05/06 09:06:26;;;;;;;12.45;6.60;;;;;;;19.93;56.68;99261.03;4483842;31;20866;-74
2022/05/06 09:08:56;;;;;;;10.63;6.50;;;;;;;20.25;55.09;99254.44;4481275;31;20087;-72
2022/05/06 09:14:20;;;;;;;8.57;6.07;;;;;;;20.06;54.43;99263.00;4479304;32;20446;-75
2022/05/06 09:16:49;;;;;;;12.63;6.57;;;;;;;20.49;54.78;99271.06;4472083;32;20118;-74
2022/05/06 09:19:22;;;;;;;10.95;6.82;;;;;;;20.53;53.21;99253.69;4482846;31;20100;-75
2022/05/06 09:22:05;;;;;;;10.77;6.80;;;;;;;20.51;53.91;99261.03;4483522;31;20084;-74
2022/05/06 09:24:33;;;;;;;16.73;6.70;;;;;;;20.57;54.60;99252.28;4481113;32;20168;-74
2022/05/06 09:27:06;;;;;;;11.00;6.40;;;;;;;20.89;53.75;99261.66;4480792;31;20119;-74
2022/05/06 09:29:36;;;;;;;8.82;6.00;;;;;;;20.69;53.97;99263.28;4480865;31;20088;-75
2022/05/06 09:32:25;;;;;;;17.27;6.30;;;;;;;20.84;53.82;99260.56;4484442;32;20168;-75
2022/05/06 09:34:55;;;;;;;9.55;6.15;;;;;;;20.89;52.37;99266.97;4478944;32;20089;-73
2022/05/06 09:37:47;;;;;;;8.93;6.40;;;;;;;21.00;54.20;99259.44;4482835;31;20084;-74
2022/05/06 09:40:19;;;;;;;9.30;5.35;;;;;;;20.84;52.13;99249.91;4482404;31;20144;-74
2022/05/06 09:42:55;;;;;;;9.10;5.03;;;;;;;21.24;52.26;99253.72;4481958;31;20456;-73
2022/05/06 09:45:43;;;;;;;10.27;4.82;;;;;;;21.19;50.63;99263.28;4483256;31;20520;-71
2022/05/06 09:48:11;;;;;;;14.75;4.43;;;;;;;20.80;50.19;99260.09;4482241;31;20160;-73
2022/05/06 09:50:44;;;;;;;7.65;4.05;;;;;;;20.86;51.03;99261.19;4497484;31;20636;-73
2022/05/06 09:53:19;;;;;;;7.62;4.37;;;;;;;21.17;50.82;99257.34;4484132;31;20141;-72
2022/05/06 09:55:47;;;;;;;5.53;4.40;;;;;;;21.43;50.60;99262.03;4485442;32;20165;-72
2022/05/06 09:58:16;;;;;;;10.82;4.90;;;;;;;21.54;47.62;99268.69;4484659;31;20105;-73
2022/05/06 10:00:43;;;;;;;9.60;4.62;;;;;;;21.36;48.38;99259.34;4484222;32;20111;-74
2022/05/06 10:03:11;;;;;;;8.05;5.75;;;;;;;21.51;49.04;99261.06;4477877;32;20509;-73
2022/05/06 10:05:39;;;;;;;8.73;5.28;;;;;;;21.38;50.42;99259.13;4482970;32;20157;-72
2022/05/06 10:08:16;;;;;;;17.00;5.70;;;;;;;21.80;50.42;99255.50;4485192;31;20641;-72
2022/05/06 10:10:55;;;;;;;9.68;5.40;;;;;;;21.54;50.56;99255.34;4476273;31;20850;-72
2022/05/06 10:13:23;;;;;;;8.32;5.15;;;;;;;21.71;48.46;99259.34;4501295;31;20441;-73
2022/05/06 10:15:52;;;;;;;27.25;6.93;;;;;;;21.79;48.61;99253.84;4487611;31;20100;-73
2022/05/06 10:18:32;;;;;;;13.32;4.82;;;;;;;21.81;49.15;99250.97;4487368;31;20130;-73
2022/05/06 10:21:07;;;;;;;7.05;5.75;;;;;;;21.70;49.49;99252.38;4483879;31;20115;-73
2022/05/06 10:23:47;;;;;;;7.68;5.12;;;;;;;21.57;48.49;99247.78;4482037;31;20105;-73
2022/05/06 10:26:33;;;;;;;8.07;5.28;;;;;;;21.80;48.38;99250.16;4476160;32;20454;-73
2022/05/06 10:35:05;;;;;;;10.63;4.78;;;;;;;22.01;48.28;99245.72;4474539;32;20151;-74
2022/05/06 10:37:37;;;;;;;8.00;5.00;;;;;;;21.96;48.21;99246.31;4474461;31;20158;-73
2022/05/06 10:40:22;;;;;;;9.20;4.78;;;;;;;22.09;48.74;99242.88;4484907;32;20093;-71
2022/05/06 10:42:51;;;;;;;11.30;5.10;;;;;;;22.35;47.80;99241.34;4483089;31;20108;-72
2022/05/06 10:45:30;;;;;;;6.97;4.37;;;;;;;22.66;48.84;99231.94;4473831;32;20454;-71
2022/05/06 10:47:59;;;;;;;10.32;4.65;;;;;;;22.82;46.86;99230.72;4482649;32;20100;-71
2022/05/06 10:50:37;;;;;;;6.70;4.55;;;;;;;22.70;44.97;99233.16;4485496;31;20089;-72
2022/05/06 10:53:05;;;;;;;7.43;4.70;;;;;;;22.32;45.55;99231.06;4483618;31;20130;-72
2022/05/06 10:55:32;;;;;;;6.70;4.85;;;;;;;22.83;46.62;99235.84;4481053;31;20092;-72
2022/05/06 10:58:02;;;;;;;12.88;5.87;;;;;;;22.69;45.77;99231.53;4483873;31;20104;-72
2022/05/06 11:00:33;;;;;;;5.45;4.62;;;;;;;22.57;46.64;99225.97;4487622;31;20123;-72
2022/05/06 11:02:59;;;;;;;7.20;4.82;;;;;;;22.82;46.77;99225.38;4485478;31;20093;-71
2022/05/06 11:05:29;;;;;;;5.57;4.37;;;;;;;22.73;46.61;99224.75;4483133;31;20145;-72
2022/05/06 11:07:59;;;;;;;7.70;4.78;;;;;;;22.76;47.09;99227.00;4481612;32;20192;-72
2022/05/06 11:10:29;;;;;;;8.38;4.22;;;;;;;23.00;46.98;99230.09;4482580;31;20410;-72
2022/05/06 11:13:18;;;;;;;6.28;4.95;;;;;;;23.29;44.23;99228.03;4484886;31;20107;-72
2022/05/06 11:15:45;;;;;;;9.77;4.57;;;;;;;22.96;46.27;99226.19;4482670;31;20430;-73
2022/05/06 11:18:12;;;;;;;7.97;4.72;;;;;;;23.31;44.90;99221.44;4484948;31;20108;-71
2022/05/06 11:20:40;;;;;;;6.37;4.60;;;;;;;23.40;46.83;99219.34;4480093;32;20105;-72
2022/05/06 11:23:13;;;;;;;16.12;5.20;;;;;;;23.78;44.96;99221.28;4483637;31;20109;-72
2022/05/06 11:25:44;;;;;;;;;;;;;;;23.98;44.16;99215.06;4484345;32;20124;-74
2022/05/06 11:28:20;;;;;;;9.88;4.40;;;;;;;23.75;41.78;99216.34;4484900;31;19987;-73
2022/05/06 11:30:50;;;;;;;9.68;4.55;;;;;;;23.85;44.33;99216.75;4481759;32;20138;-73
2022/05/06 11:33:24;;;;;;;5.37;4.25;;;;;;;23.51;44.60;99221.41;4483815;31;20096;-72
2022/05/06 11:36:01;;;;;;;9.70;3.67;;;;;;;23.08;44.65;99211.16;4474458;32;20112;-72
2022/05/06 11:38:37;;;;;;;3.95;3.22;;;;;;;23.04;43.10;99209.94;4469204;32;20124;-73
2022/05/06 11:41:11;;;;;;;5.80;3.37;;;;;;;23.06;43.36;99209.72;4478108;32;20108;-72
2022/05/06 11:43:40;;;;;;;4.50;3.60;;;;;;;23.34;43.84;99209.50;4481455;32;20122;-72
2022/05/06 11:49:08;;;;;;;6.40;3.80;;;;;;;22.68;42.50;99204.00;4484179;31;20551;-73
2022/05/06 11:51:43;;;;;;;5.80;3.45;;;;;;;23.09;45.05;99203.97;4486726;31;20125;-72
2022/05/06 11:54:10;;;;;;;7.00;3.60;;;;;;;23.03;42.58;99198.44;4496359;31;20080;-72
2022/05/06 11:56:38;;;;;;;7.65;3.50;;;;;;;23.11;43.14;99209.97;4499450;31;20167;-72
2022/05/06 11:59:09;;;;;;;24.65;4.32;;;;;;;23.16;43.99;99208.28;4499338;31;20089;-72
2022/05/06 12:01:37;;;;;;;12.68;3.67;;;;;;;23.42;42.12;99211.94;4484201;31;20131;-73
2022/05/06 12:04:09;;;;;;;5.53;3.47;;;;;;;22.99;42.13;99207.06;4496222;31;20182;-73
2022/05/06 12:06:42;;;;;;;8.38;4.35;;;;;;;22.80;44.72;99198.88;4494439;31;20897;-73
2022/05/06 12:09:24;;;;;;;8.23;3.90;;;;;;;22.76;42.58;99200.28;4488146;31;20180;-73
2022/05/06 12:12:06;;;;;;;20.25;4.00;;;;;;;22.98;44.26;99195.56;4477555;31;20163;-74
2022/05/06 12:14:35;;;;;;;6.12;3.15;;;;;;;23.68;41.77;99199.50;4463135;32;20139;-74
2022/05/06 12:17:09;;;;;;;11.50;3.67;;;;;;;23.54;41.33;99199.59;4474434;32;20100;-74